• Join FlightAware (Why Join?)
  • Login
  • US Flag 
02:02PM EST


 

Airport Tracker/Info


-or-


 

Live Flight TrackerFlight Track Log ✈ CNS128 ✈ 08-Aug-2014 ✈ KBKL - KVLL

Flight Track Log - Related Links

Times and Time Zones

All times are in EDT time to prevent confusion due to time zone crossing. See the CNS128 flight status page for this flight to view local times or setup timezone preferences in your user account.

Time Position Orientation Groundspeed Altitude Reporting Facility
EDT Latitude Longitude Course Direction KTS MPH feet Rate Location/Type
02:35PM 41.5592 -81.7128 316° Northwest 188 216 2,000  Level Cleveland Center
02:36PM 41.5733 -81.7336 312° West 166 191 2,600 1,800 Climbing Cleveland Center
02:36PM 41.5853 -81.7728 292° West 191 220 3,800 1,680 Climbing Cleveland Center
02:37PM 41.5903 -81.7975 285° West 175 201 4,400 1,260 Climbing Cleveland Center
02:37PM 41.5989 -81.8311 289° West 180 207 5,000 1,200 Climbing Cleveland Center
02:38PM 41.6072 -81.8611 290° West 176 203 5,700 1,380 Climbing Cleveland Center
02:38PM 41.6200 -81.8961 296° West 190 219 6,400 1,200 Climbing Cleveland Center
02:39PM 41.6308 -81.9253 296° West 186 214 7,000 1,140 Climbing Cleveland Center
02:39PM 41.6417 -81.9583 294° West 189 217 7,600 840 Climbing Cleveland Center
02:40PM 41.6506 -81.9919 290° West 190 219 7,900 360 Climbing Cleveland Center
02:40PM 41.6622 -82.0289 293° West 209 241 8,000 60 Climbing Cleveland Center
02:41PM 41.6794 -82.0831 293° West 225 259 8,000  Level Cleveland Center
02:41PM 41.6911 -82.1236 291° West 245 282 8,000  Level Cleveland Center
02:42PM 41.7031 -82.1647 291° West 238 274 8,000  Level Cleveland Center
02:42PM 41.7167 -82.2092 292° West 249 287 8,000  Level Cleveland Center
02:43PM 41.7300 -82.2494 294° West 243 280 8,000  Level Cleveland Center
02:43PM 41.7386 -82.2894 286° West 252 290 8,000  Level Cleveland Center
02:44PM 41.7561 -82.3358 297° West 246 283 8,000  Level Cleveland Center
02:45PM 41.7781 -82.4144 291° West 250 288 8,000  Level Cleveland Center
02:45PM 41.7822 -82.4211 310° West 246 283 8,000  Level Cleveland Center
02:46PM 41.8033 -82.5017 289° West 249 287 8,000  Level Cleveland Center
02:46PM 41.8128 -82.5250 299° West 248 285 8,000  Level Cleveland Center
02:47PM 41.8306 -82.5919 290° West 248 285 8,000  Level Cleveland Center
02:47PM 41.8392 -82.6106 302° West 248 285 8,000  Level Cleveland Center
02:48PM 41.8739 -82.6561 316° Northwest 250 288 8,000  Level Cleveland Center
02:48PM 41.8894 -82.6606 348° North 241 277 8,000 -180 Level Cleveland Center
02:49PM 41.9458 -82.6767 348° North 243 280 7,800 -300 Descending Cleveland Center
02:49PM 41.9558 -82.6778 355° North 243 280 7,700 -840 Descending Cleveland Center
02:50PM 42.0178 -82.6944 349° North 253 291 7,000 -720 Descending Cleveland Center
02:50PM 42.0244 -82.6958 351° North 247 284 7,000 -720 Level Cleveland Center
02:51PM 42.0775 -82.7078 351° North 195 224 6,300 -780 Descending Cleveland Center
02:51PM 42.0939 -82.7117 350° North 218 251 6,200 -660 Descending Cleveland Center
02:52PM 42.1269 -82.7200 349° North 196 226 5,700 -780 Descending Cleveland Center
02:52PM 42.1458 -82.7256 348° North 198 228 5,400 -840 Descending Cleveland Center
02:53PM 42.1864 -82.7361 349° North 230 265 4,900 -720 Descending Cleveland Center
02:53PM 42.2075 -82.7389 354° North 215 247 4,700 -840 Descending Cleveland Center
02:54PM 42.2436 -82.7578 339° North 210 242 4,100 -780 Descending Cleveland Center
02:54PM 42.2586 -82.7758 318° Northwest 218 251 3,900 -840 Descending Cleveland Center
02:55PM 42.2894 -82.8175 315° West 221 254 3,300 -780 Descending Cleveland Center
02:55PM 42.3003 -82.8344 311° West 218 251 3,100 -300 Descending Cleveland Center
02:56PM 42.3311 -82.8767 315° West 216 249 3,000 -120 Descending Cleveland Center
02:56PM 42.3500 -82.9033 314° West 218 251 3,000  Level Cleveland Center
02:57PM 42.3747 -82.9389 313° West 207 238 3,000  Level Cleveland Center
02:57PM 42.3900 -82.9592 316° Northwest 209 241 3,000  Level Cleveland Center
02:58PM 42.4128 -82.9922 313° West 222 255 3,000  Level Cleveland Center
02:59PM 42.4325 -83.0203 314° West 219 252 3,000  Level Cleveland Center
03:00PM 42.4736 -83.0786 314° West 219 252 3,000  Level Cleveland Center